Terminal Aerodrome Forecast
Issued by NWS Bismarck, ND

Home | Current Version | Previous Version | Text Only | Print | Product List | Glossary On
Versions: 1 2 3 4 5 6 7 8 9 10 11 12 13 14 15 16 17 18 19 20 21 22 23 24 25 26 27
000
FTUS43 KBIS 302328
TAFISN
TAF
KISN 302328Z 0100/0124 08013G20KT 4SM HZ VCTS FEW100CB
     FM010500 08009KT 5SM FU BKN035 OVC070
     FM011000 36005KT 6SM BR SCT015 OVC025
     FM011600 35007KT P6SM BKN050=

USA.gov is the U.S. government's official web portal to all federal, state and local government web resources and services.